createdAt,value
2018-03-03T00:00:44.167Z,2
2018-03-03T00:01:43.923Z,1.97
2018-03-03T00:02:43.683Z,1.84
2018-03-03T00:03:44.209Z,1.74
2018-03-03T00:04:44.216Z,1.87
2018-03-03T00:05:44.228Z,1.92
2018-03-03T00:06:44.247Z,1.78
2018-03-03T00:07:43.999Z,1.76
2018-03-03T00:08:44.011Z,1.78
2018-03-03T00:09:44.277Z,1.71
2018-03-03T00:10:43.781Z,1.66
2018-03-03T00:11:44.043Z,1.76
2018-03-03T00:12:44.371Z,1.67
2018-03-03T00:13:44.325Z,1.89
2018-03-03T00:14:44.097Z,1.81
2018-03-03T00:15:44.355Z,1.88
2018-03-03T00:16:44.107Z,1.81
2018-03-03T00:17:44.374Z,1.84
2018-03-03T00:18:44.382Z,1.92
2018-03-03T00:19:44.142Z,1.95
2018-03-03T00:20:44.155Z,1.92
2018-03-03T00:21:44.164Z,1.92
2018-03-03T00:22:43.924Z,1.95
2018-03-03T00:23:44.508Z,1.84
2018-03-03T00:24:44.200Z,1.94
2018-03-03T00:25:44.468Z,2.06
2018-03-03T00:26:43.969Z,2
2018-03-03T00:27:44.294Z,1.92
2018-03-03T00:28:44.508Z,1.88
2018-03-03T00:29:44.277Z,1.95
2018-03-03T00:30:44.311Z,1.91
2018-03-03T00:31:44.031Z,1.81
2018-03-03T00:32:44.298Z,1.74
2018-03-03T00:33:44.574Z,1.7
2018-03-03T00:34:44.583Z,1.59
2018-03-03T00:35:44.602Z,1.56
2018-03-03T00:36:44.602Z,1.62
2018-03-03T00:37:44.363Z,1.67
2018-03-03T00:38:44.634Z,1.68
2018-03-03T00:39:44.639Z,1.66
2018-03-03T00:40:44.650Z,1.66
2018-03-03T00:41:44.410Z,1.59
2018-03-03T00:42:44.673Z,1.67
2018-03-03T00:43:44.738Z,1.58
2018-03-03T00:44:44.444Z,1.66
2018-03-03T00:45:44.719Z,1.6
2018-03-03T00:46:44.471Z,1.78
2018-03-03T00:47:44.733Z,1.67
2018-03-03T00:48:44.502Z,1.68
2018-03-03T00:49:44.758Z,1.78
2018-03-03T00:50:44.768Z,1.77
2018-03-03T00:51:44.527Z,1.68
2018-03-03T00:52:44.540Z,1.73
2018-03-03T00:53:44.802Z,1.68
2018-03-03T00:54:44.571Z,1.7
2018-03-03T00:55:44.835Z,1.71
2018-03-03T00:56:44.591Z,1.91
2018-03-03T00:57:44.869Z,1.85
2018-03-03T00:58:44.661Z,1.78
2018-03-03T00:59:44.879Z,1.87
2018-03-03T01:00:44.896Z,1.87
2018-03-03T01:01:44.905Z,1.97
2018-03-03T01:02:44.405Z,2.02
2018-03-03T01:03:44.926Z,1.95
2018-03-03T01:04:44.687Z,1.95
2018-03-03T01:05:44.696Z,1.91
2018-03-03T01:06:44.709Z,2
2018-03-03T01:07:44.466Z,1.94
2018-03-03T01:08:44.989Z,2.06
2018-03-03T01:09:44.745Z,2.14
2018-03-03T01:10:45.007Z,2.17
2018-03-03T01:11:44.790Z,2.14
2018-03-03T01:12:44.526Z,2.28
2018-03-03T01:13:44.588Z,2.2
2018-03-03T01:14:45.061Z,2.26
2018-03-03T01:15:45.069Z,2.28
2018-03-03T01:16:44.830Z,2.24
2018-03-03T01:17:44.588Z,2.26
2018-03-03T01:18:44.857Z,2.33
2018-03-03T01:19:45.123Z,2.31
2018-03-03T01:20:45.139Z,2.35
2018-03-03T01:21:44.640Z,2.35
2018-03-03T01:22:44.903Z,2.33
2018-03-03T01:23:44.919Z,2.38
2018-03-03T01:24:44.932Z,2.32
2018-03-03T01:25:44.955Z,2.32
2018-03-03T01:26:44.954Z,2.42
2018-03-03T01:27:45.225Z,2.39
2018-03-03T01:28:45.284Z,2.47
2018-03-03T01:29:45.252Z,2.44
2018-03-03T01:30:45.259Z,2.5
2018-03-03T01:31:45.273Z,2.39
2018-03-03T01:32:45.036Z,2.47
2018-03-03T01:33:45.042Z,2.47
2018-03-03T01:34:45.313Z,2.53
2018-03-03T01:35:45.338Z,2.53
2018-03-03T01:36:45.330Z,2.5
2018-03-03T01:37:45.089Z,2.54
2018-03-03T01:38:45.106Z,2.56
2018-03-03T01:39:45.368Z,2.6
2018-03-03T01:40:45.136Z,2.46
2018-03-03T01:41:45.396Z,2.38
2018-03-03T01:42:45.415Z,2.35
2018-03-03T01:43:45.474Z,2.38
2018-03-03T01:44:44.926Z,2.38
2018-03-03T01:45:45.188Z,2.35
2018-03-03T01:46:45.204Z,2.32
2018-03-03T01:47:45.214Z,2.29
2018-03-03T01:48:45.493Z,2.26
2018-03-03T01:49:45.496Z,2.2
2018-03-03T01:50:45.267Z,2.28
2018-03-03T01:51:45.526Z,2.2
2018-03-03T01:52:45.543Z,2.24
2018-03-03T01:53:45.296Z,2.2
2018-03-03T01:54:45.560Z,2.22
2018-03-03T01:55:45.318Z,2.22
2018-03-03T01:56:45.075Z,2.2
2018-03-03T01:57:45.601Z,2.07
2018-03-03T01:58:45.406Z,2.08
2018-03-03T01:59:45.371Z,2
2018-03-03T02:00:45.390Z,2.04
2018-03-03T02:01:45.402Z,1.94
2018-03-03T02:02:45.407Z,1.88
2018-03-03T02:03:45.680Z,1.85
2018-03-03T02:04:45.433Z,1.95
2018-03-03T02:05:45.444Z,1.95
2018-03-03T02:06:45.455Z,1.84
2018-03-03T02:07:45.220Z,1.78
2018-03-03T02:08:45.738Z,1.8
2018-03-03T02:09:45.746Z,1.71
2018-03-03T02:10:45.507Z,1.78
2018-03-03T02:11:45.519Z,1.85
2018-03-03T02:12:45.781Z,1.73
2018-03-03T02:13:45.591Z,1.76
2018-03-03T02:14:45.552Z,1.68
2018-03-03T02:15:45.564Z,1.73
2018-03-03T02:16:45.831Z,1.7
2018-03-03T02:17:45.848Z,1.71
2018-03-03T02:18:45.603Z,1.67
2018-03-03T02:19:45.618Z,1.66
2018-03-03T02:20:45.882Z,1.63
2018-03-03T02:21:45.904Z,1.68
2018-03-03T02:22:45.911Z,1.62
2018-03-03T02:23:45.669Z,1.56
2018-03-03T02:24:45.677Z,1.59
2018-03-03T02:25:45.955Z,1.5
2018-03-03T02:26:45.956Z,1.48
2018-03-03T02:27:45.967Z,1.53
2018-03-03T02:28:45.777Z,1.55
2018-03-03T02:29:45.994Z,1.53
2018-03-03T02:30:45.752Z,1.49
2018-03-03T02:31:46.025Z,1.48
2018-03-03T02:32:46.037Z,1.5
2018-03-03T02:33:45.788Z,1.49
2018-03-03T02:34:45.797Z,1.42
2018-03-03T02:35:46.079Z,1.42
2018-03-03T02:36:45.826Z,1.31
2018-03-03T02:37:46.099Z,1.32
2018-03-03T02:38:46.111Z,1.32
2018-03-03T02:39:45.863Z,1.34
2018-03-03T02:40:45.886Z,1.4
2018-03-03T02:41:46.148Z,1.4
2018-03-03T02:42:45.901Z,1.35
2018-03-03T02:43:45.913Z,1.31
2018-03-03T02:44:46.180Z,1.31
2018-03-03T02:45:46.009Z,1.28
2018-03-03T02:46:45.975Z,1.28
2018-03-03T02:47:45.701Z,1.28
2018-03-03T02:48:45.718Z,1.32
2018-03-03T02:49:45.982Z,1.3
2018-03-03T02:50:46.259Z,1.34
2018-03-03T02:51:46.072Z,1.31
2018-03-03T02:52:46.016Z,1.37
2018-03-03T02:53:46.029Z,1.34
2018-03-03T02:54:46.296Z,1.28
2018-03-03T02:55:46.409Z,1.22
2018-03-03T02:56:46.324Z,1.28
2018-03-03T02:57:46.082Z,1.24
2018-03-03T02:58:46.345Z,1.22
2018-03-03T02:59:46.359Z,1.23
2018-03-03T03:00:46.164Z,1.24
2018-03-03T03:01:46.122Z,1.12
2018-03-03T03:02:46.393Z,1.17
2018-03-03T03:03:46.408Z,1.24
2018-03-03T03:04:46.414Z,1.2
2018-03-03T03:05:46.438Z,1.22
2018-03-03T03:06:46.451Z,1.19
2018-03-03T03:07:46.451Z,1.22
2018-03-03T03:08:46.463Z,1.1
2018-03-03T03:09:45.961Z,1.08
2018-03-03T03:10:46.480Z,1.12
2018-03-03T03:11:46.240Z,1.12
2018-03-03T03:12:46.253Z,1.13
2018-03-03T03:13:46.519Z,1.08
2018-03-03T03:14:46.278Z,1.05
2018-03-03T03:15:46.443Z,1.12
2018-03-03T03:16:46.302Z,1.12
2018-03-03T03:17:46.583Z,1.22
2018-03-03T03:18:46.582Z,1.12
2018-03-03T03:19:46.588Z,1.02
2018-03-03T03:20:46.608Z,1.06
2018-03-03T03:21:46.358Z,0.96
2018-03-03T03:22:46.370Z,1.12
2018-03-03T03:23:46.642Z,1.08
2018-03-03T03:24:46.391Z,1.14
2018-03-03T03:25:46.150Z,1.06
2018-03-03T03:26:46.670Z,1.12
2018-03-03T03:27:46.428Z,1.1
2018-03-03T03:28:46.699Z,1.14
2018-03-03T03:29:46.455Z,1.04
2018-03-03T03:30:46.727Z,0.99
2018-03-03T03:31:46.479Z,1.12
2018-03-03T03:32:46.483Z,1.02
2018-03-03T03:33:46.756Z,1.17
2018-03-03T03:34:46.771Z,1.05
2018-03-03T03:35:46.775Z,0.94
2018-03-03T03:36:46.797Z,0.96
2018-03-03T03:37:46.568Z,0.95
2018-03-03T03:38:46.824Z,0.92
2018-03-03T03:39:46.821Z,0.96
2018-03-03T03:40:46.835Z,1.05
2018-03-03T03:41:46.847Z,1.05
2018-03-03T03:42:46.859Z,1.02
2018-03-03T03:43:46.871Z,0.96
2018-03-03T03:44:46.634Z,0.98
2018-03-03T03:45:46.898Z,0.98
2018-03-03T03:46:46.646Z,1.01
2018-03-03T03:47:46.657Z,0.98
2018-03-03T03:48:46.922Z,1.02
2018-03-03T03:49:46.938Z,1.01
2018-03-03T03:50:46.945Z,0.94
2018-03-03T03:51:46.969Z,0.91
2018-03-03T03:52:46.971Z,0.88
2018-03-03T03:53:46.729Z,0.96
2018-03-03T03:54:46.990Z,0.86
2018-03-03T03:55:47.030Z,0.92
2018-03-03T03:56:46.761Z,0.92
2018-03-03T03:57:47.025Z,0.92
2018-03-03T03:58:47.044Z,0.95
2018-03-03T03:59:46.543Z,0.86
2018-03-03T04:00:46.818Z,0.91
2018-03-03T04:01:47.075Z,0.84
2018-03-03T04:02:47.093Z,0.87
2018-03-03T04:03:47.097Z,0.84
2018-03-03T04:04:47.114Z,0.84
2018-03-03T04:05:47.125Z,0.86
2018-03-03T04:06:47.129Z,0.96
2018-03-03T04:07:47.143Z,0.88
2018-03-03T04:08:47.151Z,0.94
2018-03-03T04:09:47.172Z,0.95
2018-03-03T04:10:46.673Z,0.92
2018-03-03T04:11:47.238Z,0.88
2018-03-03T04:12:47.202Z,0.94
2018-03-03T04:13:46.960Z,0.98
2018-03-03T04:14:46.971Z,0.92
2018-03-03T04:15:47.240Z,1.02
2018-03-03T04:16:46.995Z,1.1
2018-03-03T04:17:47.269Z,1.04
2018-03-03T04:18:46.762Z,1.04
2018-03-03T04:19:47.031Z,0.91
2018-03-03T04:20:47.049Z,0.91
2018-03-03T04:21:47.312Z,0.95
2018-03-03T04:22:47.316Z,0.95
2018-03-03T04:23:47.071Z,1.01
2018-03-03T04:24:47.084Z,0.94
2018-03-03T04:25:47.352Z,1.05
2018-03-03T04:26:47.362Z,1.05
2018-03-03T04:27:47.120Z,0.92
2018-03-03T04:28:47.134Z,0.98
2018-03-03T04:29:47.400Z,0.92
2018-03-03T04:30:47.409Z,0.92
2018-03-03T04:31:46.916Z,0.98
2018-03-03T04:32:47.280Z,0.94
2018-03-03T04:33:47.191Z,0.94
2018-03-03T04:34:47.201Z,0.92
2018-03-03T04:35:47.213Z,0.92
2018-03-03T04:36:47.225Z,0.94
2018-03-03T04:37:47.516Z,0.92
2018-03-03T04:38:47.508Z,0.92
2018-03-03T04:39:47.515Z,0.96
2018-03-03T04:40:47.531Z,0.95
2018-03-03T04:41:47.285Z,1.02
2018-03-03T04:42:47.601Z,1.02
2018-03-03T04:43:47.567Z,0.99
2018-03-03T04:44:47.322Z,1.01
2018-03-03T04:45:47.331Z,0.98
2018-03-03T04:46:47.601Z,0.92
2018-03-03T04:47:47.607Z,0.96
2018-03-03T04:48:47.614Z,0.94
2018-03-03T04:49:47.631Z,0.95
2018-03-03T04:50:47.388Z,1.04
2018-03-03T04:51:47.665Z,1.05
2018-03-03T04:52:47.408Z,0.95
2018-03-03T04:53:47.169Z,1.01
2018-03-03T04:54:47.434Z,1.01
2018-03-03T04:55:47.452Z,1.01
2018-03-03T04:56:47.459Z,1.08
2018-03-03T04:57:47.521Z,1.1
2018-03-03T04:58:47.731Z,1.08
2018-03-03T04:59:47.750Z,1.04
2018-03-03T05:00:47.764Z,1.02
2018-03-03T05:01:47.771Z,1.06
2018-03-03T05:02:47.828Z,1.08
2018-03-03T05:03:47.791Z,1.12
2018-03-03T05:04:47.824Z,1.08
2018-03-03T05:05:47.307Z,1.13
2018-03-03T05:06:47.597Z,1.05
2018-03-03T05:07:47.838Z,1.19
2018-03-03T05:08:47.599Z,1.12
2018-03-03T05:09:47.607Z,1.05
2018-03-03T05:10:47.880Z,1.02
2018-03-03T05:11:47.636Z,1.04
2018-03-03T05:12:48.011Z,1.02
2018-03-03T05:13:47.911Z,1.12
2018-03-03T05:14:47.665Z,1.04
2018-03-03T05:15:47.933Z,1.12
2018-03-03T05:16:47.712Z,1.06
2018-03-03T05:17:47.703Z,1.1
2018-03-03T05:18:47.714Z,1.08
2018-03-03T05:19:47.978Z,1.14
2018-03-03T05:20:47.986Z,1.17
2018-03-03T05:21:47.746Z,1.2
2018-03-03T05:22:47.759Z,1.17
2018-03-03T05:23:48.026Z,1.14
2018-03-03T05:24:48.040Z,1.05
2018-03-03T05:25:47.794Z,1.16
2018-03-03T05:26:47.806Z,1.14
2018-03-03T05:27:47.868Z,1.17
2018-03-03T05:28:48.083Z,1.02
2018-03-03T05:29:47.843Z,1.04
2018-03-03T05:30:47.853Z,0.91
2018-03-03T05:31:48.122Z,0.91
2018-03-03T05:32:48.129Z,1.02
2018-03-03T05:33:47.887Z,1.06
2018-03-03T05:34:48.153Z,0.94
2018-03-03T05:35:48.164Z,0.95
2018-03-03T05:36:48.173Z,0.96
2018-03-03T05:37:48.217Z,1.05
2018-03-03T05:38:47.942Z,1.04
2018-03-03T05:39:48.211Z,1.06
2018-03-03T05:40:48.221Z,1.02
2018-03-03T05:41:48.226Z,1.05
2018-03-03T05:42:48.294Z,1.1
2018-03-03T05:43:48.000Z,1.02
2018-03-03T05:44:48.277Z,1.05
2018-03-03T05:45:48.025Z,1.1
2018-03-03T05:46:48.291Z,1.12
2018-03-03T05:47:48.303Z,1.04
2018-03-03T05:48:48.321Z,1.12
2018-03-03T05:49:48.078Z,1.05
2018-03-03T05:50:48.084Z,1.16
2018-03-03T05:51:48.349Z,1.13
2018-03-03T05:52:48.372Z,1.12
2018-03-03T05:53:48.370Z,1.13
2018-03-03T05:54:48.381Z,1.13
2018-03-03T05:55:47.886Z,1.14
2018-03-03T05:56:48.408Z,1.01
2018-03-03T05:57:48.470Z,1.05
2018-03-03T05:58:48.436Z,1.13
2018-03-03T05:59:48.207Z,1.08
2018-03-03T06:00:48.453Z,1.04
2018-03-03T06:01:48.212Z,1.12
2018-03-03T06:02:48.220Z,0.88
2018-03-03T06:03:48.234Z,0.92
2018-03-03T06:04:48.496Z,0.92
2018-03-03T06:05:48.514Z,0.92
2018-03-03T06:06:48.272Z,0.94
2018-03-03T06:07:48.630Z,1.01
2018-03-03T06:08:48.547Z,1.08
2018-03-03T06:09:48.304Z,1.12
2018-03-03T06:10:48.321Z,1.13
2018-03-03T06:11:48.580Z,1.1
2018-03-03T06:12:48.650Z,1.01
2018-03-03T06:13:48.604Z,1.1
2018-03-03T06:14:48.615Z,1.05
2018-03-03T06:15:48.646Z,1.2
2018-03-03T06:16:48.638Z,1.19
2018-03-03T06:17:48.415Z,1.13
2018-03-03T06:18:48.666Z,1.2
2018-03-03T06:19:48.422Z,1.24
2018-03-03T06:20:48.686Z,1.3
2018-03-03T06:21:48.444Z,1.28
2018-03-03T06:22:48.455Z,1.34
2018-03-03T06:23:48.467Z,1.35
2018-03-03T06:24:48.732Z,1.38
2018-03-03T06:25:48.240Z,1.52
2018-03-03T06:26:48.763Z,1.48
2018-03-03T06:27:48.835Z,1.52
2018-03-03T06:28:48.777Z,1.52
2018-03-03T06:29:48.538Z,1.48
2018-03-03T06:30:48.294Z,1.62
2018-03-03T06:31:48.562Z,1.66
2018-03-03T06:32:48.828Z,1.66
2018-03-03T06:33:48.582Z,1.7
2018-03-03T06:34:48.851Z,1.63
2018-03-03T06:35:48.610Z,1.7
2018-03-03T06:36:48.622Z,1.68
2018-03-03T06:37:48.634Z,1.76
2018-03-03T06:38:48.903Z,1.66
2018-03-03T06:39:48.408Z,1.62
2018-03-03T06:40:48.927Z,1.63
2018-03-03T06:41:48.683Z,1.68
2018-03-03T06:42:48.863Z,1.73
2018-03-03T06:43:48.706Z,1.66
2018-03-03T06:44:48.973Z,1.73
2018-03-03T06:45:48.988Z,1.68
2018-03-03T06:46:48.744Z,1.7
2018-03-03T06:47:48.520Z,1.78
2018-03-03T06:48:48.781Z,1.71
2018-03-03T06:49:49.037Z,1.76
2018-03-03T06:50:48.791Z,1.77
2018-03-03T06:51:49.061Z,1.74
2018-03-03T06:52:48.816Z,1.71
2018-03-03T06:53:48.869Z,1.67
2018-03-03T06:54:48.838Z,1.59
2018-03-03T06:55:48.598Z,1.77
2018-03-03T06:56:48.862Z,1.73
2018-03-03T06:57:49.182Z,1.78
2018-03-03T06:58:49.145Z,1.91
2018-03-03T06:59:49.158Z,1.87
2018-03-03T07:00:49.170Z,1.88
2018-03-03T07:01:49.179Z,1.95
2018-03-03T07:02:49.193Z,1.85
2018-03-03T07:03:48.962Z,1.97
2018-03-03T07:04:49.219Z,1.84
2018-03-03T07:05:48.978Z,1.84
2018-03-03T07:06:49.240Z,1.81
2018-03-03T07:07:49.379Z,1.94
2018-03-03T07:08:49.268Z,2.04
2018-03-03T07:09:49.026Z,2.14
2018-03-03T07:10:48.786Z,2.1
2018-03-03T07:11:49.305Z,2.17
2018-03-03T07:12:48.859Z,2.28
2018-03-03T07:13:49.333Z,2.28
2018-03-03T07:14:48.845Z,2.28
2018-03-03T07:15:49.100Z,2.42
2018-03-03T07:16:49.369Z,2.51
2018-03-03T07:17:49.394Z,2.62
2018-03-03T07:18:49.389Z,2.62
2018-03-03T07:19:49.147Z,2.72
2018-03-03T07:20:49.163Z,2.68
2018-03-03T07:21:48.936Z,2.61
2018-03-03T07:22:49.443Z,2.64
2018-03-03T07:23:49.205Z,2.68
2018-03-03T07:24:49.212Z,2.79
2018-03-03T07:25:48.974Z,2.85
2018-03-03T07:26:49.494Z,2.83
2018-03-03T07:27:49.510Z,2.9
2018-03-03T07:28:49.647Z,3.01
2018-03-03T07:29:49.541Z,3.04
2018-03-03T07:30:49.342Z,3.18
2018-03-03T07:31:49.307Z,3.23
2018-03-03T07:32:49.579Z,3.23
2018-03-03T07:33:49.334Z,3.34
2018-03-03T07:34:49.348Z,3.4
2018-03-03T07:35:49.361Z,3.4
2018-03-03T07:36:49.625Z,3.56
2018-03-03T07:37:49.692Z,3.7
2018-03-03T07:38:49.401Z,3.76
2018-03-03T07:39:49.673Z,3.74
2018-03-03T07:40:49.677Z,3.86
2018-03-03T07:41:49.695Z,3.91
2018-03-03T07:42:49.714Z,3.88
2018-03-03T07:43:49.216Z,4.01
2018-03-03T07:44:49.485Z,3.88
2018-03-03T07:45:49.546Z,3.91
2018-03-03T07:46:49.758Z,3.99
2018-03-03T07:47:49.782Z,4.19
2018-03-03T07:48:49.792Z,4.14
2018-03-03T07:49:49.548Z,4.05
2018-03-03T07:50:49.579Z,3.95
2018-03-03T07:51:49.828Z,3.94
2018-03-03T07:52:49.849Z,4.12
2018-03-03T07:53:49.862Z,4.2
2018-03-03T07:54:49.619Z,4.04
2018-03-03T07:55:49.633Z,4.1
2018-03-03T07:56:49.647Z,4.04
2018-03-03T07:57:49.662Z,4.19
2018-03-03T07:58:49.931Z,4.23
2018-03-03T07:59:49.949Z,4.28
2018-03-03T08:00:49.757Z,4.35
2018-03-03T08:01:49.987Z,4.38
2018-03-03T08:02:49.732Z,4.17
2018-03-03T08:03:49.749Z,4.1
2018-03-03T08:04:50.028Z,4.19
2018-03-03T08:05:50.032Z,4.24
2018-03-03T08:06:49.791Z,4.31
2018-03-03T08:07:49.553Z,4.38
2018-03-03T08:08:49.826Z,4.34
2018-03-03T08:09:49.582Z,4.45
2018-03-03T08:10:49.851Z,4.49
2018-03-03T08:11:49.616Z,4.55
2018-03-03T08:12:50.154Z,4.6
2018-03-03T08:13:50.145Z,4.75
2018-03-03T08:14:49.654Z,4.75
2018-03-03T08:15:50.223Z,4.67
2018-03-03T08:16:50.190Z,4.75
2018-03-03T08:17:50.208Z,4.77
2018-03-03T08:18:50.222Z,4.71
2018-03-03T08:19:50.002Z,4.7
2018-03-03T08:20:49.994Z,4.92
2018-03-03T08:21:50.019Z,4.9
2018-03-03T08:22:49.772Z,4.99
2018-03-03T08:23:50.047Z,5.07
2018-03-03T08:24:50.308Z,4.82
2018-03-03T08:25:50.323Z,4.74
2018-03-03T08:26:50.081Z,4.66
2018-03-03T08:27:50.100Z,4.62
2018-03-03T08:28:50.374Z,4.49
2018-03-03T08:29:50.385Z,4.53
2018-03-03T08:30:50.215Z,4.5
2018-03-03T08:31:50.420Z,4.59
2018-03-03T08:32:49.920Z,4.48
2018-03-03T08:33:50.446Z,4.52
2018-03-03T08:34:50.204Z,4.49
2018-03-03T08:35:50.517Z,4.37
2018-03-03T08:36:50.493Z,4.49
2018-03-03T08:37:50.504Z,4.59
2018-03-03T08:38:50.262Z,4.4
2018-03-03T08:39:50.278Z,4.45
2018-03-03T08:40:50.545Z,4.4
2018-03-03T08:41:50.311Z,4.45
2018-03-03T08:42:50.577Z,4.52
2018-03-03T08:43:50.595Z,4.56
2018-03-03T08:44:50.351Z,4.49
2018-03-03T08:45:50.417Z,4.28
2018-03-03T08:46:50.654Z,4.17
2018-03-03T08:47:50.656Z,4.17
2018-03-03T08:48:50.678Z,4.38
2018-03-03T08:49:50.681Z,4.17
2018-03-03T08:50:50.697Z,4.41
2018-03-03T08:51:50.711Z,4.5
2018-03-03T08:52:50.725Z,4.45
2018-03-03T08:53:50.489Z,4.73
2018-03-03T08:54:50.252Z,4.75
2018-03-03T08:55:50.262Z,4.89
2018-03-03T08:56:50.786Z,5.11
2018-03-03T08:57:50.809Z,5.05
2018-03-03T08:58:50.813Z,5.11
2018-03-03T08:59:50.575Z,5.14
2018-03-03T09:00:50.648Z,5.25
2018-03-03T09:01:50.862Z,5.2
2018-03-03T09:02:50.620Z,5.29
2018-03-03T09:03:50.642Z,5.32
2018-03-03T09:04:50.397Z,5.32
2018-03-03T09:05:50.931Z,5.26
2018-03-03T09:06:50.937Z,5.38
2018-03-03T09:07:50.955Z,5.5
2018-03-03T09:08:50.970Z,5.47
2018-03-03T09:09:50.726Z,5.66
2018-03-03T09:10:50.745Z,5.53
2018-03-03T09:11:51.014Z,5.61
2018-03-03T09:12:51.044Z,5.83
2018-03-03T09:13:51.051Z,6.07
2018-03-03T09:14:51.060Z,6.36
2018-03-03T09:15:50.874Z,6.45
2018-03-03T09:16:51.093Z,6.52
2018-03-03T09:17:51.115Z,6.44
2018-03-03T09:18:51.129Z,6.41
2018-03-03T09:19:51.141Z,6.44
2018-03-03T09:20:51.158Z,6.51
2018-03-03T09:21:51.172Z,6.63
2018-03-03T09:22:51.187Z,6.69
2018-03-03T09:23:51.202Z,6.7
2018-03-03T09:24:51.224Z,6.88
2018-03-03T09:25:51.234Z,6.88
2018-03-03T09:26:51.251Z,6.82
2018-03-03T09:27:51.306Z,6.95
2018-03-03T09:28:51.286Z,6.95
2018-03-03T09:29:51.047Z,7.14
2018-03-03T09:30:51.114Z,7.2
2018-03-03T09:31:51.084Z,7.21
2018-03-03T09:32:51.096Z,7.24
2018-03-03T09:33:51.366Z,7.23
2018-03-03T09:34:51.131Z,7.1
2018-03-03T09:35:51.609Z,7.32
2018-03-03T09:36:51.417Z,7.24
2018-03-03T09:37:50.924Z,7.25
2018-03-03T09:38:51.453Z,6.87
2018-03-03T09:39:50.956Z,6.85
2018-03-03T09:40:51.226Z,6.84
2018-03-03T09:41:51.238Z,6.81
2018-03-03T09:42:51.004Z,6.59
2018-03-03T09:43:51.278Z,6.66
2018-03-03T09:44:51.543Z,6.63
2018-03-03T09:45:51.608Z,6.84
2018-03-03T09:46:51.325Z,7
2018-03-03T09:47:51.335Z,7.15
2018-03-03T09:48:51.103Z,7.15
2018-03-03T09:49:51.119Z,7.29
2018-03-03T09:50:51.640Z,7.25
2018-03-03T09:51:51.657Z,7.24
2018-03-03T09:52:51.418Z,7.36
2018-03-03T09:53:51.433Z,7.4
2018-03-03T09:54:51.710Z,7.42
2018-03-03T09:55:51.217Z,7.43
2018-03-03T09:56:51.485Z,7.61
2018-03-03T09:57:51.756Z,7.69
2018-03-03T09:58:51.575Z,7.53
2018-03-03T09:59:51.285Z,7.48
2018-03-03T10:00:51.806Z,7.58
2018-03-03T10:02:08.962Z,7.79
2018-03-03T10:02:51.890Z,7.69
2018-03-03T10:03:51.605Z,7.79
2018-03-03T10:04:51.897Z,7.91
2018-03-03T10:05:51.386Z,8
2018-03-03T10:06:51.657Z,7.88
2018-03-03T10:07:51.927Z,7.88
2018-03-03T10:08:51.436Z,7.66
2018-03-03T10:09:51.964Z,7.82
2018-03-03T10:10:51.726Z,7.48
2018-03-03T10:11:51.998Z,7.53
2018-03-03T10:12:51.504Z,7.47
2018-03-03T10:13:51.524Z,7.54
2018-03-03T10:14:51.795Z,7.53
2018-03-03T10:15:51.811Z,7.45
2018-03-03T10:16:51.840Z,7.57
2018-03-03T10:17:52.153Z,7.42
2018-03-03T10:18:52.129Z,7.57
2018-03-03T10:19:51.879Z,7.66
2018-03-03T10:20:51.946Z,7.93
2018-03-03T10:21:51.922Z,7.73
2018-03-03T10:22:52.183Z,7.85
2018-03-03T10:23:52.206Z,7.7
2018-03-03T10:24:51.966Z,7.73
2018-03-03T10:25:51.987Z,7.79
2018-03-03T10:26:52.254Z,7.67
2018-03-03T10:27:52.275Z,7.61
2018-03-03T10:28:52.033Z,7.69
2018-03-03T10:29:52.312Z,7.76
2018-03-03T10:30:52.068Z,7.57
2018-03-03T10:31:52.414Z,7.69
2018-03-03T10:32:52.414Z,7.61
2018-03-03T10:33:52.384Z,7.61
2018-03-03T10:34:52.396Z,7.69
2018-03-03T10:35:52.412Z,7.79
2018-03-03T10:36:52.431Z,7.9
2018-03-03T10:37:52.447Z,7.85
2018-03-03T10:38:52.208Z,7.79
2018-03-03T10:39:52.268Z,7.76
2018-03-03T10:40:51.985Z,7.94
2018-03-03T10:41:52.006Z,7.88
2018-03-03T10:42:52.276Z,7.95
2018-03-03T10:43:52.546Z,8.09
2018-03-03T10:44:52.308Z,8.12
2018-03-03T10:45:52.579Z,8.23
2018-03-03T10:46:52.346Z,8.28
2018-03-03T10:47:52.409Z,8.38
2018-03-03T10:48:52.379Z,8.46
2018-03-03T10:49:52.397Z,8.51
2018-03-03T10:50:52.571Z,8.64
2018-03-03T10:51:52.701Z,8.79
2018-03-03T10:52:52.449Z,8.97
2018-03-03T10:53:52.469Z,9.18
2018-03-03T10:54:52.231Z,9.25
2018-03-03T10:55:52.500Z,9.37
2018-03-03T10:56:52.777Z,9.4
2018-03-03T10:57:52.542Z,9.47
2018-03-03T10:58:52.560Z,9.74
2018-03-03T10:59:52.841Z,9.92
2018-03-03T11:00:52.869Z,9.84
2018-03-03T11:01:52.614Z,9.86
2018-03-03T11:02:52.937Z,9.74
2018-03-03T11:03:52.914Z,9.86
2018-03-03T11:04:52.938Z,9.8
2018-03-03T11:05:52.691Z,9.68
2018-03-03T11:06:52.709Z,9.65
2018-03-03T11:07:52.985Z,9.46
2018-03-03T11:08:53.013Z,9.43
2018-03-03T11:09:52.512Z,9.28
2018-03-03T11:10:53.040Z,9.19
2018-03-03T11:11:52.808Z,9.03
2018-03-03T11:12:52.827Z,9.25
2018-03-03T11:13:53.095Z,9.41
2018-03-03T11:14:52.866Z,9.37
2018-03-03T11:15:52.978Z,9.34
2018-03-03T11:16:52.898Z,9.41
2018-03-03T11:17:53.191Z,9.58
2018-03-03T11:18:52.989Z,9.84
2018-03-03T11:19:53.218Z,10.2
2018-03-03T11:20:53.237Z,10.61
2018-03-03T11:21:53.250Z,10.82
2018-03-03T11:22:53.278Z,11.05
2018-03-03T11:23:53.296Z,11.23
2018-03-03T11:24:53.316Z,11.37
2018-03-03T11:25:53.335Z,11.37
2018-03-03T11:26:53.380Z,11.43
2018-03-03T11:27:53.120Z,11.69
2018-03-03T11:28:53.399Z,11.73
2018-03-03T11:29:52.907Z,11.7
2018-03-03T11:30:53.185Z,11.7
2018-03-03T11:31:53.462Z,11.54
2018-03-03T11:32:53.227Z,11.66
2018-03-03T11:33:53.555Z,11.66
2018-03-03T11:34:53.014Z,11.52
2018-03-03T11:35:53.289Z,11.37
2018-03-03T11:36:53.312Z,11.4
2018-03-03T11:37:53.592Z,11.32
2018-03-03T11:38:53.606Z,11.5
2018-03-03T11:39:53.624Z,11.9
2018-03-03T11:40:53.394Z,11.97
2018-03-03T11:41:53.730Z,12.03
2018-03-03T11:42:53.691Z,12.02
2018-03-03T11:43:53.712Z,12.28
2018-03-03T11:44:53.732Z,12.46
2018-03-03T11:45:53.245Z,12.29
2018-03-03T11:46:53.529Z,12.17
2018-03-03T11:47:53.288Z,12.21
2018-03-03T11:48:53.627Z,12.1
2018-03-03T11:49:53.846Z,12.27
2018-03-03T11:50:53.859Z,12.5
2018-03-03T11:51:53.633Z,12.57
2018-03-03T11:52:53.397Z,12.67
2018-03-03T11:53:53.676Z,12.62
2018-03-03T11:54:53.951Z,12.76
2018-03-03T11:55:53.969Z,12.75
2018-03-03T11:56:53.486Z,12.86
2018-03-03T11:57:54.014Z,12.83
2018-03-03T11:58:53.783Z,12.76
2018-03-03T11:59:54.065Z,13.11
2018-03-03T12:00:53.839Z,13.31
2018-03-03T12:01:53.853Z,13.25
2018-03-03T12:02:53.877Z,13.39
2018-03-03T12:03:53.903Z,13.72
2018-03-03T12:04:54.232Z,13.87
2018-03-03T12:05:53.957Z,14.17
2018-03-03T12:06:54.231Z,14.22
2018-03-03T12:07:53.996Z,13.81
2018-03-03T12:08:54.021Z,13.81
2018-03-03T12:09:54.304Z,14
2018-03-03T12:10:54.321Z,14.03
2018-03-03T12:11:54.344Z,14.35
2018-03-03T12:12:53.864Z,14.58
2018-03-03T12:13:54.397Z,14.91
2018-03-03T12:14:54.421Z,14.85
2018-03-03T12:15:54.192Z,14.66
2018-03-03T12:16:53.959Z,14.53
2018-03-03T12:17:54.495Z,14.51
2018-03-03T12:18:54.265Z,14.54
2018-03-03T12:19:54.587Z,14.69
2018-03-03T12:20:54.312Z,14.73
2018-03-03T12:21:54.332Z,14.78
2018-03-03T12:22:54.615Z,14.91
2018-03-03T12:23:54.391Z,15.11
2018-03-03T12:24:54.876Z,15.03
2018-03-03T12:25:54.431Z,15.19
2018-03-03T12:26:54.453Z,15.18
2018-03-03T12:27:54.476Z,15.15
2018-03-03T12:28:54.540Z,14.92
2018-03-03T12:29:54.782Z,14.86
2018-03-03T12:30:54.555Z,15.1
2018-03-03T12:31:54.583Z,14.99
2018-03-03T12:32:54.600Z,14.91
2018-03-03T12:33:54.877Z,14.97
2018-03-03T12:34:54.696Z,14.99
2018-03-03T12:35:54.673Z,14.86
2018-03-03T12:36:54.701Z,14.6
2018-03-03T12:37:54.718Z,14.69
2018-03-03T12:38:55.006Z,14.65
2018-03-03T12:39:55.022Z,14.32
2018-03-03T12:40:54.539Z,14.35
2018-03-03T12:41:54.825Z,14.37
2018-03-03T12:42:54.839Z,14.55
2018-03-03T12:43:54.872Z,14.53
2018-03-03T12:44:55.248Z,14.3
2018-03-03T12:45:54.909Z,13.77
2018-03-03T12:46:55.192Z,14.07
2018-03-03T12:47:54.952Z,13.92
2018-03-03T12:48:54.991Z,13.92
2018-03-03T12:49:55.063Z,13.85
2018-03-03T12:50:55.286Z,13.85
2018-03-03T12:51:55.048Z,13.79
2018-03-03T12:52:55.346Z,13.57
2018-03-03T12:53:55.346Z,13.49
2018-03-03T12:54:55.125Z,13.59
2018-03-03T12:55:55.408Z,13.47
2018-03-03T12:56:54.909Z,13.3
2018-03-03T12:57:55.467Z,13.37
2018-03-03T12:58:55.500Z,13.22
2018-03-03T12:59:55.485Z,12.82
2018-03-03T13:00:54.996Z,12.49
2018-03-03T13:01:55.273Z,12.31
2018-03-03T13:02:55.042Z,12.29
2018-03-03T13:03:55.061Z,12.04
2018-03-03T13:04:56.742Z,11.91
2018-03-03T13:05:55.619Z,11.94
2018-03-03T13:06:55.432Z,12.1
2018-03-03T13:07:55.401Z,11.95
2018-03-03T13:08:55.424Z,11.86
2018-03-03T13:09:55.798Z,11.73
2018-03-03T13:10:55.208Z,11.72
2018-03-03T13:11:55.750Z,11.72
2018-03-03T13:12:55.830Z,11.86
2018-03-03T13:13:55.776Z,11.86
2018-03-03T13:14:55.798Z,11.99
2018-03-03T13:15:55.814Z,11.81
2018-03-03T13:16:55.579Z,11.52
2018-03-03T13:17:55.854Z,11.23